sensor_id;sensor_type;location;lat;lon;timestamp;P1;durP1;ratioP1;P2;durP2;ratioP2
42096;SDS011;27754;45.414;11.084;2023-10-31T00:01:05;13.07;;;6.00;;
42096;SDS011;27754;45.414;11.084;2023-10-31T00:03:32;13.10;;;6.25;;
42096;SDS011;27754;45.414;11.084;2023-10-31T00:05:59;17.45;;;6.10;;
42096;SDS011;27754;45.414;11.084;2023-10-31T00:08:26;13.02;;;5.93;;
42096;SDS011;27754;45.414;11.084;2023-10-31T00:10:53;9.45;;;5.43;;
42096;SDS011;27754;45.414;11.084;2023-10-31T00:13:20;11.43;;;5.18;;
42096;SDS011;27754;45.414;11.084;2023-10-31T00:15:47;14.35;;;5.65;;
42096;SDS011;27754;45.414;11.084;2023-10-31T00:18:14;8.93;;;5.20;;
42096;SDS011;27754;45.414;11.084;2023-10-31T00:20:41;13.07;;;5.80;;
42096;SDS011;27754;45.414;11.084;2023-10-31T00:23:08;9.75;;;5.15;;
42096;SDS011;27754;45.414;11.084;2023-10-31T00:25:35;6.75;;;4.47;;
42096;SDS011;27754;45.414;11.084;2023-10-31T00:28:02;8.18;;;4.15;;
42096;SDS011;27754;45.414;11.084;2023-10-31T00:30:30;10.77;;;4.68;;
42096;SDS011;27754;45.414;11.084;2023-10-31T00:32:57;14.27;;;4.82;;
42096;SDS011;27754;45.414;11.084;2023-10-31T00:35:24;9.00;;;3.80;;
42096;SDS011;27754;45.414;11.084;2023-10-31T00:37:51;11.65;;;4.13;;
42096;SDS011;27754;45.414;11.084;2023-10-31T00:40:18;12.45;;;4.38;;
42096;SDS011;27754;45.414;11.084;2023-10-31T00:42:45;13.18;;;3.78;;
42096;SDS011;27754;45.414;11.084;2023-10-31T00:45:13;9.20;;;3.70;;
42096;SDS011;27754;45.414;11.084;2023-10-31T00:47:40;9.40;;;4.13;;
42096;SDS011;27754;45.414;11.084;2023-10-31T00:50:07;10.95;;;4.03;;
42096;SDS011;27754;45.414;11.084;2023-10-31T00:52:35;8.50;;;4.72;;
42096;SDS011;27754;45.414;11.084;2023-10-31T00:55:03;10.60;;;3.72;;
42096;SDS011;27754;45.414;11.084;2023-10-31T00:57:31;7.35;;;3.72;;
42096;SDS011;27754;45.414;11.084;2023-10-31T00:59:57;9.00;;;4.03;;
42096;SDS011;27754;45.414;11.084;2023-10-31T01:02:24;10.90;;;3.90;;
42096;SDS011;27754;45.414;11.084;2023-10-31T01:04:51;7.05;;;3.72;;
42096;SDS011;27754;45.414;11.084;2023-10-31T01:07:18;10.40;;;3.88;;
42096;SDS011;27754;45.414;11.084;2023-10-31T01:09:45;6.47;;;3.80;;
42096;SDS011;27754;45.414;11.084;2023-10-31T01:12:12;10.50;;;3.90;;
42096;SDS011;27754;45.414;11.084;2023-10-31T01:14:39;10.00;;;4.20;;
42096;SDS011;27754;45.414;11.084;2023-10-31T01:17:06;8.00;;;3.78;;
42096;SDS011;27754;45.414;11.084;2023-10-31T01:19:33;7.00;;;4.35;;
42096;SDS011;27754;45.414;11.084;2023-10-31T01:22:01;6.20;;;3.58;;
42096;SDS011;27754;45.414;11.084;2023-10-31T01:24:28;6.80;;;3.80;;
42096;SDS011;27754;45.414;11.084;2023-10-31T01:26:55;8.70;;;4.65;;
42096;SDS011;27754;45.414;11.084;2023-10-31T01:29:22;7.22;;;3.75;;
42096;SDS011;27754;45.414;11.084;2023-10-31T01:31:49;7.72;;;3.83;;
42096;SDS011;27754;45.414;11.084;2023-10-31T01:34:27;9.50;;;3.90;;
42096;SDS011;27754;45.414;11.084;2023-10-31T01:36:54;11.88;;;4.30;;
42096;SDS011;27754;45.414;11.084;2023-10-31T01:39:21;8.70;;;4.15;;
42096;SDS011;27754;45.414;11.084;2023-10-31T01:41:48;7.25;;;4.22;;
42096;SDS011;27754;45.414;11.084;2023-10-31T01:44:15;6.18;;;3.42;;
42096;SDS011;27754;45.414;11.084;2023-10-31T01:46:42;9.68;;;4.10;;
42096;SDS011;27754;45.414;11.084;2023-10-31T01:49:09;9.20;;;4.60;;
42096;SDS011;27754;45.414;11.084;2023-10-31T01:51:36;7.25;;;3.78;;
42096;SDS011;27754;45.414;11.084;2023-10-31T01:54:03;9.57;;;3.50;;
42096;SDS011;27754;45.414;11.084;2023-10-31T01:56:30;6.35;;;3.60;;
42096;SDS011;27754;45.414;11.084;2023-10-31T01:58:57;13.48;;;4.35;;
42096;SDS011;27754;45.414;11.084;2023-10-31T02:01:25;10.52;;;4.15;;
42096;SDS011;27754;45.414;11.084;2023-10-31T02:03:52;12.50;;;4.97;;
42096;SDS011;27754;45.414;11.084;2023-10-31T02:06:20;9.48;;;4.00;;
42096;SDS011;27754;45.414;11.084;2023-10-31T02:08:48;10.27;;;4.47;;
42096;SDS011;27754;45.414;11.084;2023-10-31T02:11:15;9.10;;;3.92;;
42096;SDS011;27754;45.414;11.084;2023-10-31T02:13:42;10.40;;;3.97;;
42096;SDS011;27754;45.414;11.084;2023-10-31T02:16:09;11.68;;;4.45;;
42096;SDS011;27754;45.414;11.084;2023-10-31T02:18:36;8.30;;;3.90;;
42096;SDS011;27754;45.414;11.084;2023-10-31T02:21:03;11.98;;;4.50;;
42096;SDS011;27754;45.414;11.084;2023-10-31T02:23:30;8.65;;;4.78;;
42096;SDS011;27754;45.414;11.084;2023-10-31T02:25:57;14.50;;;5.45;;
42096;SDS011;27754;45.414;11.084;2023-10-31T02:28:24;9.77;;;4.38;;
42096;SDS011;27754;45.414;11.084;2023-10-31T02:30:54;11.77;;;4.15;;
42096;SDS011;27754;45.414;11.084;2023-10-31T02:33:21;9.80;;;3.63;;
42096;SDS011;27754;45.414;11.084;2023-10-31T02:35:48;7.18;;;3.70;;
42096;SDS011;27754;45.414;11.084;2023-10-31T02:38:16;6.97;;;3.97;;
42096;SDS011;27754;45.414;11.084;2023-10-31T02:40:43;9.40;;;4.22;;
42096;SDS011;27754;45.414;11.084;2023-10-31T02:43:10;13.00;;;4.10;;
42096;SDS011;27754;45.414;11.084;2023-10-31T02:45:37;9.27;;;4.10;;
42096;SDS011;27754;45.414;11.084;2023-10-31T02:48:04;10.80;;;3.88;;
42096;SDS011;27754;45.414;11.084;2023-10-31T02:50:31;9.88;;;5.20;;
42096;SDS011;27754;45.414;11.084;2023-10-31T02:52:58;10.82;;;4.97;;
42096;SDS011;27754;45.414;11.084;2023-10-31T02:55:25;9.35;;;4.45;;
42096;SDS011;27754;45.414;11.084;2023-10-31T02:57:52;9.88;;;4.25;;
42096;SDS011;27754;45.414;11.084;2023-10-31T03:00:19;7.05;;;4.00;;
42096;SDS011;27754;45.414;11.084;2023-10-31T03:02:46;14.32;;;5.05;;
42096;SDS011;27754;45.414;11.084;2023-10-31T03:05:13;8.77;;;4.20;;
42096;SDS011;27754;45.414;11.084;2023-10-31T03:07:41;9.77;;;3.97;;
42096;SDS011;27754;45.414;11.084;2023-10-31T03:10:08;10.10;;;3.88;;
42096;SDS011;27754;45.414;11.084;2023-10-31T03:12:35;9.55;;;5.00;;
42096;SDS011;27754;45.414;11.084;2023-10-31T03:15:05;10.85;;;4.57;;
42096;SDS011;27754;45.414;11.084;2023-10-31T03:17:32;6.57;;;3.63;;
42096;SDS011;27754;45.414;11.084;2023-10-31T03:19:59;8.63;;;4.00;;
42096;SDS011;27754;45.414;11.084;2023-10-31T03:22:26;8.82;;;3.45;;
42096;SDS011;27754;45.414;11.084;2023-10-31T03:24:53;6.80;;;3.35;;
42096;SDS011;27754;45.414;11.084;2023-10-31T03:27:20;13.35;;;3.17;;
42096;SDS011;27754;45.414;11.084;2023-10-31T03:29:48;9.95;;;4.05;;
42096;SDS011;27754;45.414;11.084;2023-10-31T03:32:15;10.05;;;3.28;;
42096;SDS011;27754;45.414;11.084;2023-10-31T03:34:42;7.10;;;3.35;;
42096;SDS011;27754;45.414;11.084;2023-10-31T03:37:09;8.27;;;3.63;;
42096;SDS011;27754;45.414;11.084;2023-10-31T03:39:36;9.07;;;3.47;;
42096;SDS011;27754;45.414;11.084;2023-10-31T03:42:03;9.82;;;3.10;;
42096;SDS011;27754;45.414;11.084;2023-10-31T03:44:31;8.32;;;3.63;;
42096;SDS011;27754;45.414;11.084;2023-10-31T03:46:58;13.48;;;4.10;;
42096;SDS011;27754;45.414;11.084;2023-10-31T03:49:25;11.85;;;4.30;;
42096;SDS011;27754;45.414;11.084;2023-10-31T03:51:52;8.85;;;4.05;;
42096;SDS011;27754;45.414;11.084;2023-10-31T03:54:20;8.35;;;4.07;;
42096;SDS011;27754;45.414;11.084;2023-10-31T03:56:47;8.77;;;3.63;;
42096;SDS011;27754;45.414;11.084;2023-10-31T03:59:16;9.45;;;3.42;;
42096;SDS011;27754;45.414;11.084;2023-10-31T04:01:43;8.23;;;3.33;;
42096;SDS011;27754;45.414;11.084;2023-10-31T04:04:10;9.23;;;3.08;;
42096;SDS011;27754;45.414;11.084;2023-10-31T04:06:37;9.02;;;3.40;;
42096;SDS011;27754;45.414;11.084;2023-10-31T04:09:07;9.88;;;3.38;;
42096;SDS011;27754;45.414;11.084;2023-10-31T04:11:34;7.05;;;3.17;;
42096;SDS011;27754;45.414;11.084;2023-10-31T04:14:01;6.97;;;3.45;;
42096;SDS011;27754;45.414;11.084;2023-10-31T04:16:28;7.97;;;4.10;;
42096;SDS011;27754;45.414;11.084;2023-10-31T04:18:55;11.73;;;4.28;;
42096;SDS011;27754;45.414;11.084;2023-10-31T04:21:22;10.27;;;4.82;;
42096;SDS011;27754;45.414;11.084;2023-10-31T04:23:49;9.13;;;3.88;;
42096;SDS011;27754;45.414;11.084;2023-10-31T04:26:16;8.68;;;3.65;;
42096;SDS011;27754;45.414;11.084;2023-10-31T04:28:43;10.25;;;3.45;;
42096;SDS011;27754;45.414;11.084;2023-10-31T04:31:10;9.68;;;3.40;;
42096;SDS011;27754;45.414;11.084;2023-10-31T04:33:37;8.75;;;3.92;;
42096;SDS011;27754;45.414;11.084;2023-10-31T04:36:04;9.10;;;4.55;;
42096;SDS011;27754;45.414;11.084;2023-10-31T04:38:31;7.78;;;4.25;;
42096;SDS011;27754;45.414;11.084;2023-10-31T04:40:58;10.68;;;4.60;;
42096;SDS011;27754;45.414;11.084;2023-10-31T04:43:25;8.75;;;4.40;;
42096;SDS011;27754;45.414;11.084;2023-10-31T04:45:52;9.65;;;4.75;;
42096;SDS011;27754;45.414;11.084;2023-10-31T04:48:19;10.23;;;4.57;;
42096;SDS011;27754;45.414;11.084;2023-10-31T04:50:46;10.25;;;3.72;;
42096;SDS011;27754;45.414;11.084;2023-10-31T04:53:13;7.47;;;3.65;;
42096;SDS011;27754;45.414;11.084;2023-10-31T04:55:40;8.68;;;4.13;;
42096;SDS011;27754;45.414;11.084;2023-10-31T04:58:07;10.18;;;4.10;;
42096;SDS011;27754;45.414;11.084;2023-10-31T05:00:34;11.10;;;4.18;;
42096;SDS011;27754;45.414;11.084;2023-10-31T05:03:01;12.50;;;3.85;;
42096;SDS011;27754;45.414;11.084;2023-10-31T05:05:29;12.55;;;4.15;;
42096;SDS011;27754;45.414;11.084;2023-10-31T05:07:56;14.95;;;4.90;;
42096;SDS011;27754;45.414;11.084;2023-10-31T05:10:24;16.73;;;6.30;;
42096;SDS011;27754;45.414;11.084;2023-10-31T05:12:51;7.85;;;4.50;;
42096;SDS011;27754;45.414;11.084;2023-10-31T05:15:19;9.38;;;4.80;;
42096;SDS011;27754;45.414;11.084;2023-10-31T05:17:46;11.63;;;4.88;;
42096;SDS011;27754;45.414;11.084;2023-10-31T05:20:13;9.45;;;4.53;;
42096;SDS011;27754;45.414;11.084;2023-10-31T05:22:40;11.68;;;3.95;;
42096;SDS011;27754;45.414;11.084;2023-10-31T05:25:07;13.60;;;4.60;;
42096;SDS011;27754;45.414;11.084;2023-10-31T05:27:34;14.90;;;3.92;;
42096;SDS011;27754;45.414;11.084;2023-10-31T05:30:02;10.05;;;4.65;;
42096;SDS011;27754;45.414;11.084;2023-10-31T05:32:29;9.98;;;4.07;;
42096;SDS011;27754;45.414;11.084;2023-10-31T05:34:56;10.27;;;4.13;;
42096;SDS011;27754;45.414;11.084;2023-10-31T05:37:26;20.88;;;5.85;;
42096;SDS011;27754;45.414;11.084;2023-10-31T05:39:52;10.68;;;5.13;;
42096;SDS011;27754;45.414;11.084;2023-10-31T05:42:19;9.63;;;5.00;;
42096;SDS011;27754;45.414;11.084;2023-10-31T05:44:47;9.27;;;3.83;;
42096;SDS011;27754;45.414;11.084;2023-10-31T05:47:14;7.72;;;4.15;;
42096;SDS011;27754;45.414;11.084;2023-10-31T05:49:42;11.00;;;4.57;;
42096;SDS011;27754;45.414;11.084;2023-10-31T05:52:10;12.45;;;4.22;;
42096;SDS011;27754;45.414;11.084;2023-10-31T05:54:37;9.65;;;3.50;;
42096;SDS011;27754;45.414;11.084;2023-10-31T05:57:04;10.25;;;4.38;;
42096;SDS011;27754;45.414;11.084;2023-10-31T05:59:31;8.07;;;4.90;;
42096;SDS011;27754;45.414;11.084;2023-10-31T06:01:59;12.70;;;5.22;;
42096;SDS011;27754;45.414;11.084;2023-10-31T06:04:26;12.95;;;5.13;;
42096;SDS011;27754;45.414;11.084;2023-10-31T06:06:52;9.40;;;4.15;;
42096;SDS011;27754;45.414;11.084;2023-10-31T06:09:19;11.68;;;5.20;;
42096;SDS011;27754;45.414;11.084;2023-10-31T06:11:47;13.48;;;5.13;;
42096;SDS011;27754;45.414;11.084;2023-10-31T06:14:14;12.32;;;6.20;;
42096;SDS011;27754;45.414;11.084;2023-10-31T06:16:41;11.98;;;6.55;;
42096;SDS011;27754;45.414;11.084;2023-10-31T06:19:09;13.02;;;7.45;;
42096;SDS011;27754;45.414;11.084;2023-10-31T06:21:36;17.08;;;5.85;;
42096;SDS011;27754;45.414;11.084;2023-10-31T06:24:04;9.82;;;5.45;;
42096;SDS011;27754;45.414;11.084;2023-10-31T06:26:31;12.93;;;5.53;;
42096;SDS011;27754;45.414;11.084;2023-10-31T06:28:58;12.60;;;4.95;;
42096;SDS011;27754;45.414;11.084;2023-10-31T06:31:45;7.57;;;4.20;;
42096;SDS011;27754;45.414;11.084;2023-10-31T06:34:12;9.68;;;4.93;;
42096;SDS011;27754;45.414;11.084;2023-10-31T06:36:39;7.25;;;4.07;;
42096;SDS011;27754;45.414;11.084;2023-10-31T06:39:06;10.35;;;3.30;;
42096;SDS011;27754;45.414;11.084;2023-10-31T06:41:33;8.90;;;3.03;;
42096;SDS011;27754;45.414;11.084;2023-10-31T06:44:00;8.48;;;3.50;;
42096;SDS011;27754;45.414;11.084;2023-10-31T06:46:27;9.50;;;4.25;;
42096;SDS011;27754;45.414;11.084;2023-10-31T06:48:54;7.45;;;3.53;;
42096;SDS011;27754;45.414;11.084;2023-10-31T06:51:20;8.38;;;3.35;;
42096;SDS011;27754;45.414;11.084;2023-10-31T06:53:47;8.55;;;3.83;;
42096;SDS011;27754;45.414;11.084;2023-10-31T06:56:14;10.25;;;3.38;;
42096;SDS011;27754;45.414;11.084;2023-10-31T06:58:41;8.02;;;3.50;;
42096;SDS011;27754;45.414;11.084;2023-10-31T07:01:08;9.05;;;2.88;;
42096;SDS011;27754;45.414;11.084;2023-10-31T07:03:36;8.65;;;2.13;;
42096;SDS011;27754;45.414;11.084;2023-10-31T07:06:03;4.28;;;1.83;;
42096;SDS011;27754;45.414;11.084;2023-10-31T07:08:30;7.38;;;1.98;;
42096;SDS011;27754;45.414;11.084;2023-10-31T07:10:57;4.72;;;2.20;;
42096;SDS011;27754;45.414;11.084;2023-10-31T07:13:27;5.45;;;2.05;;
42096;SDS011;27754;45.414;11.084;2023-10-31T07:15:54;5.18;;;1.58;;
42096;SDS011;27754;45.414;11.084;2023-10-31T07:18:21;6.13;;;1.95;;
42096;SDS011;27754;45.414;11.084;2023-10-31T07:20:48;8.05;;;1.90;;
42096;SDS011;27754;45.414;11.084;2023-10-31T07:23:15;5.78;;;1.75;;
42096;SDS011;27754;45.414;11.084;2023-10-31T07:25:42;4.20;;;1.88;;
42096;SDS011;27754;45.414;11.084;2023-10-31T07:28:09;4.47;;;2.35;;
42096;SDS011;27754;45.414;11.084;2023-10-31T07:30:37;5.05;;;1.33;;
42096;SDS011;27754;45.414;11.084;2023-10-31T07:33:03;3.92;;;1.40;;
42096;SDS011;27754;45.414;11.084;2023-10-31T07:35:31;3.47;;;1.65;;
42096;SDS011;27754;45.414;11.084;2023-10-31T07:37:58;6.82;;;2.15;;
42096;SDS011;27754;45.414;11.084;2023-10-31T07:40:25;7.03;;;2.13;;
42096;SDS011;27754;45.414;11.084;2023-10-31T07:42:52;3.35;;;2.20;;
42096;SDS011;27754;45.414;11.084;2023-10-31T07:45:19;5.28;;;2.80;;
42096;SDS011;27754;45.414;11.084;2023-10-31T07:47:46;4.78;;;2.97;;
42096;SDS011;27754;45.414;11.084;2023-10-31T07:50:13;4.70;;;3.70;;
42096;SDS011;27754;45.414;11.084;2023-10-31T07:52:40;4.70;;;3.50;;
42096;SDS011;27754;45.414;11.084;2023-10-31T07:55:07;6.85;;;3.45;;
42096;SDS011;27754;45.414;11.084;2023-10-31T07:57:37;4.38;;;3.08;;
42096;SDS011;27754;45.414;11.084;2023-10-31T08:00:04;5.32;;;3.38;;
42096;SDS011;27754;45.414;11.084;2023-10-31T08:02:40;4.43;;;2.17;;
42096;SDS011;27754;45.414;11.084;2023-10-31T08:05:07;2.88;;;1.73;;
42096;SDS011;27754;45.414;11.084;2023-10-31T08:07:34;2.63;;;1.38;;
42096;SDS011;27754;45.414;11.084;2023-10-31T08:10:02;3.88;;;1.50;;
42096;SDS011;27754;45.414;11.084;2023-10-31T08:12:30;3.80;;;1.10;;
42096;SDS011;27754;45.414;11.084;2023-10-31T08:14:57;1.83;;;1.10;;
42096;SDS011;27754;45.414;11.084;2023-10-31T08:17:25;1.50;;;0.95;;
42096;SDS011;27754;45.414;11.084;2023-10-31T08:19:52;1.25;;;0.80;;
42096;SDS011;27754;45.414;11.084;2023-10-31T08:22:19;1.35;;;0.88;;
42096;SDS011;27754;45.414;11.084;2023-10-31T08:24:46;1.20;;;0.60;;
42096;SDS011;27754;45.414;11.084;2023-10-31T08:27:13;2.03;;;0.88;;
42096;SDS011;27754;45.414;11.084;2023-10-31T08:29:40;1.55;;;0.80;;
42096;SDS011;27754;45.414;11.084;2023-10-31T08:32:07;1.38;;;0.85;;
42096;SDS011;27754;45.414;11.084;2023-10-31T08:34:34;1.67;;;0.85;;
42096;SDS011;27754;45.414;11.084;2023-10-31T08:37:01;2.33;;;0.70;;
42096;SDS011;27754;45.414;11.084;2023-10-31T08:39:29;1.45;;;0.80;;
42096;SDS011;27754;45.414;11.084;2023-10-31T08:41:57;3.53;;;1.00;;
42096;SDS011;27754;45.414;11.084;2023-10-31T08:44:25;2.88;;;0.90;;
42096;SDS011;27754;45.414;11.084;2023-10-31T08:46:53;1.77;;;0.60;;
42096;SDS011;27754;45.414;11.084;2023-10-31T08:49:20;2.83;;;0.65;;
42096;SDS011;27754;45.414;11.084;2023-10-31T08:51:47;4.00;;;0.75;;
42096;SDS011;27754;45.414;11.084;2023-10-31T08:54:14;1.77;;;0.75;;
42096;SDS011;27754;45.414;11.084;2023-10-31T08:56:41;1.88;;;0.82;;
42096;SDS011;27754;45.414;11.084;2023-10-31T08:59:08;0.88;;;0.60;;
42096;SDS011;27754;45.414;11.084;2023-10-31T09:01:35;2.30;;;0.82;;
42096;SDS011;27754;45.414;11.084;2023-10-31T09:04:02;3.17;;;0.63;;
42096;SDS011;27754;45.414;11.084;2023-10-31T09:06:29;1.67;;;0.57;;
42096;SDS011;27754;45.414;11.084;2023-10-31T09:08:56;1.27;;;0.80;;
42096;SDS011;27754;45.414;11.084;2023-10-31T09:11:23;3.50;;;0.50;;
42096;SDS011;27754;45.414;11.084;2023-10-31T09:13:50;2.95;;;0.40;;
42096;SDS011;27754;45.414;11.084;2023-10-31T09:16:17;0.75;;;0.60;;
42096;SDS011;27754;45.414;11.084;2023-10-31T09:18:44;1.00;;;0.50;;
42096;SDS011;27754;45.414;11.084;2023-10-31T09:21:13;2.30;;;0.57;;
42096;SDS011;27754;45.414;11.084;2023-10-31T09:23:40;0.70;;;0.50;;
42096;SDS011;27754;45.414;11.084;2023-10-31T09:26:07;0.82;;;0.57;;
42096;SDS011;27754;45.414;11.084;2023-10-31T09:28:35;0.63;;;0.40;;
42096;SDS011;27754;45.414;11.084;2023-10-31T09:31:03;0.98;;;0.60;;
42096;SDS011;27754;45.414;11.084;2023-10-31T09:33:30;1.08;;;0.38;;
42096;SDS011;27754;45.414;11.084;2023-10-31T09:35:57;0.65;;;0.40;;
42096;SDS011;27754;45.414;11.084;2023-10-31T09:38:24;0.80;;;0.40;;
42096;SDS011;27754;45.414;11.084;2023-10-31T09:40:51;1.58;;;0.65;;
42096;SDS011;27754;45.414;11.084;2023-10-31T09:43:18;0.80;;;0.40;;
42096;SDS011;27754;45.414;11.084;2023-10-31T09:45:46;2.60;;;0.88;;
42096;SDS011;27754;45.414;11.084;2023-10-31T09:48:14;4.22;;;0.65;;
42096;SDS011;27754;45.414;11.084;2023-10-31T09:50:41;0.68;;;0.30;;
42096;SDS011;27754;45.414;11.084;2023-10-31T09:53:09;1.10;;;0.38;;
42096;SDS011;27754;45.414;11.084;2023-10-31T09:55:36;1.52;;;0.70;;
42096;SDS011;27754;45.414;11.084;2023-10-31T09:58:05;3.58;;;0.50;;
42096;SDS011;27754;45.414;11.084;2023-10-31T10:00:32;1.40;;;0.40;;
42096;SDS011;27754;45.414;11.084;2023-10-31T10:02:59;1.25;;;0.43;;
42096;SDS011;27754;45.414;11.084;2023-10-31T10:05:26;1.45;;;0.43;;
42096;SDS011;27754;45.414;11.084;2023-10-31T10:07:57;2.05;;;0.30;;
42096;SDS011;27754;45.414;11.084;2023-10-31T10:10:24;1.27;;;0.40;;
42096;SDS011;27754;45.414;11.084;2023-10-31T10:12:51;0.90;;;0.50;;
42096;SDS011;27754;45.414;11.084;2023-10-31T10:15:19;1.73;;;0.50;;
42096;SDS011;27754;45.414;11.084;2023-10-31T10:17:49;1.65;;;0.70;;
42096;SDS011;27754;45.414;11.084;2023-10-31T10:20:17;2.10;;;0.60;;
42096;SDS011;27754;45.414;11.084;2023-10-31T10:22:45;1.65;;;0.60;;
42096;SDS011;27754;45.414;11.084;2023-10-31T10:25:13;1.08;;;0.60;;
42096;SDS011;27754;45.414;11.084;2023-10-31T10:27:45;2.30;;;0.80;;
42096;SDS011;27754;45.414;11.084;2023-10-31T10:30:13;1.45;;;0.80;;
42096;SDS011;27754;45.414;11.084;2023-10-31T10:32:41;1.67;;;0.70;;
42096;SDS011;27754;45.414;11.084;2023-10-31T10:35:08;0.73;;;0.60;;
42096;SDS011;27754;45.414;11.084;2023-10-31T10:37:36;1.02;;;0.60;;
42096;SDS011;27754;45.414;11.084;2023-10-31T10:40:05;2.42;;;0.88;;
42096;SDS011;27754;45.414;11.084;2023-10-31T10:45:15;0.98;;;0.70;;
42096;SDS011;27754;45.414;11.084;2023-10-31T10:47:45;0.98;;;0.60;;
42096;SDS011;27754;45.414;11.084;2023-10-31T10:50:14;1.05;;;0.90;;
42096;SDS011;27754;45.414;11.084;2023-10-31T10:52:48;2.20;;;1.00;;
42096;SDS011;27754;45.414;11.084;2023-10-31T10:55:21;2.45;;;1.13;;
42096;SDS011;27754;45.414;11.084;2023-10-31T10:57:54;4.43;;;1.20;;
42096;SDS011;27754;45.414;11.084;2023-10-31T11:00:39;6.78;;;1.35;;
42096;SDS011;27754;45.414;11.084;2023-10-31T11:03:07;2.42;;;0.88;;
42096;SDS011;27754;45.414;11.084;2023-10-31T11:05:35;2.72;;;0.93;;
42096;SDS011;27754;45.414;11.084;2023-10-31T11:08:03;2.88;;;0.90;;
42096;SDS011;27754;45.414;11.084;2023-10-31T11:10:32;2.33;;;0.95;;
42096;SDS011;27754;45.414;11.084;2023-10-31T11:12:59;3.05;;;0.88;;
42096;SDS011;27754;45.414;11.084;2023-10-31T11:15:26;1.55;;;0.88;;
42096;SDS011;27754;45.414;11.084;2023-10-31T11:17:54;3.55;;;1.40;;
42096;SDS011;27754;45.414;11.084;2023-10-31T11:20:21;4.65;;;1.23;;
42096;SDS011;27754;45.414;11.084;2023-10-31T11:22:49;2.78;;;1.02;;
42096;SDS011;27754;45.414;11.084;2023-10-31T11:25:24;4.28;;;1.10;;
42096;SDS011;27754;45.414;11.084;2023-10-31T11:28:17;3.22;;;1.15;;
42096;SDS011;27754;45.414;11.084;2023-10-31T11:30:50;2.15;;;1.10;;
42096;SDS011;27754;45.414;11.084;2023-10-31T11:33:23;4.75;;;1.13;;
42096;SDS011;27754;45.414;11.084;2023-10-31T11:35:50;2.28;;;0.80;;
42096;SDS011;27754;45.414;11.084;2023-10-31T11:38:32;3.63;;;0.57;;
42096;SDS011;27754;45.414;11.084;2023-10-31T11:41:04;0.98;;;0.55;;
42096;SDS011;27754;45.414;11.084;2023-10-31T11:46:23;2.00;;;0.60;;
42096;SDS011;27754;45.414;11.084;2023-10-31T11:48:55;3.70;;;1.08;;
42096;SDS011;27754;45.414;11.084;2023-10-31T11:51:24;2.13;;;0.70;;
42096;SDS011;27754;45.414;11.084;2023-10-31T11:53:52;2.28;;;0.65;;
42096;SDS011;27754;45.414;11.084;2023-10-31T11:56:19;1.30;;;0.30;;
42096;SDS011;27754;45.414;11.084;2023-10-31T11:59:03;1.27;;;0.63;;
42096;SDS011;27754;45.414;11.084;2023-10-31T12:01:33;1.45;;;0.60;;
42096;SDS011;27754;45.414;11.084;2023-10-31T12:04:10;2.17;;;0.63;;
42096;SDS011;27754;45.414;11.084;2023-10-31T12:06:56;1.20;;;0.43;;
42096;SDS011;27754;45.414;11.084;2023-10-31T12:09:27;1.25;;;0.50;;
42096;SDS011;27754;45.414;11.084;2023-10-31T12:11:57;1.13;;;0.52;;
42096;SDS011;27754;45.414;11.084;2023-10-31T12:14:24;1.33;;;0.88;;
42096;SDS011;27754;45.414;11.084;2023-10-31T12:16:51;2.55;;;0.65;;
42096;SDS011;27754;45.414;11.084;2023-10-31T12:19:20;1.95;;;0.68;;
42096;SDS011;27754;45.414;11.084;2023-10-31T12:21:47;0.82;;;0.40;;
42096;SDS011;27754;45.414;11.084;2023-10-31T12:24:17;1.83;;;0.70;;
42096;SDS011;27754;45.414;11.084;2023-10-31T12:26:44;2.47;;;0.50;;
42096;SDS011;27754;45.414;11.084;2023-10-31T12:29:13;1.48;;;0.90;;
42096;SDS011;27754;45.414;11.084;2023-10-31T12:31:44;4.88;;;0.60;;
42096;SDS011;27754;45.414;11.084;2023-10-31T12:34:16;1.77;;;0.45;;
42096;SDS011;27754;45.414;11.084;2023-10-31T12:36:49;6.65;;;0.77;;
42096;SDS011;27754;45.414;11.084;2023-10-31T12:39:24;1.88;;;0.90;;
42096;SDS011;27754;45.414;11.084;2023-10-31T12:41:53;3.15;;;0.93;;
42096;SDS011;27754;45.414;11.084;2023-10-31T12:44:22;2.58;;;0.98;;
42096;SDS011;27754;45.414;11.084;2023-10-31T12:46:52;2.53;;;0.88;;
42096;SDS011;27754;45.414;11.084;2023-10-31T12:49:19;3.45;;;0.80;;
42096;SDS011;27754;45.414;11.084;2023-10-31T12:51:57;2.58;;;0.70;;
42096;SDS011;27754;45.414;11.084;2023-10-31T12:57:06;1.17;;;0.55;;
42096;SDS011;27754;45.414;11.084;2023-10-31T12:59:34;1.00;;;0.45;;
42096;SDS011;27754;45.414;11.084;2023-10-31T13:02:04;1.50;;;0.40;;
42096;SDS011;27754;45.414;11.084;2023-10-31T13:04:33;0.70;;;0.40;;
42096;SDS011;27754;45.414;11.084;2023-10-31T13:07:01;2.75;;;0.90;;
42096;SDS011;27754;45.414;11.084;2023-10-31T13:09:31;1.40;;;0.50;;
42096;SDS011;27754;45.414;11.084;2023-10-31T13:12:03;0.32;;;0.30;;
42096;SDS011;27754;45.414;11.084;2023-10-31T13:14:31;2.65;;;0.30;;
42096;SDS011;27754;45.414;11.084;2023-10-31T13:16:59;0.40;;;0.25;;
42096;SDS011;27754;45.414;11.084;2023-10-31T13:19:28;1.70;;;0.40;;
42096;SDS011;27754;45.414;11.084;2023-10-31T13:21:55;0.73;;;0.40;;
42096;SDS011;27754;45.414;11.084;2023-10-31T13:24:22;1.20;;;0.50;;
42096;SDS011;27754;45.414;11.084;2023-10-31T13:26:49;1.30;;;0.68;;
42096;SDS011;27754;45.414;11.084;2023-10-31T13:29:19;3.58;;;0.60;;
42096;SDS011;27754;45.414;11.084;2023-10-31T13:31:47;2.65;;;0.60;;
42096;SDS011;27754;45.414;11.084;2023-10-31T13:34:14;2.90;;;0.75;;
42096;SDS011;27754;45.414;11.084;2023-10-31T13:36:41;1.70;;;0.60;;
42096;SDS011;27754;45.414;11.084;2023-10-31T13:39:09;2.35;;;0.52;;
42096;SDS011;27754;45.414;11.084;2023-10-31T13:41:36;1.75;;;0.52;;
42096;SDS011;27754;45.414;11.084;2023-10-31T13:44:03;1.05;;;0.50;;
42096;SDS011;27754;45.414;11.084;2023-10-31T13:46:30;0.60;;;0.30;;
42096;SDS011;27754;45.414;11.084;2023-10-31T13:48:57;0.85;;;0.30;;
42096;SDS011;27754;45.414;11.084;2023-10-31T13:51:25;1.20;;;0.50;;
42096;SDS011;27754;45.414;11.084;2023-10-31T13:53:52;3.58;;;0.50;;
42096;SDS011;27754;45.414;11.084;2023-10-31T13:56:18;1.80;;;0.50;;
42096;SDS011;27754;45.414;11.084;2023-10-31T13:58:46;1.17;;;0.57;;
42096;SDS011;27754;45.414;11.084;2023-10-31T14:01:14;1.50;;;0.55;;
42096;SDS011;27754;45.414;11.084;2023-10-31T14:03:41;0.93;;;0.57;;
42096;SDS011;27754;45.414;11.084;2023-10-31T14:06:11;1.10;;;0.52;;
42096;SDS011;27754;45.414;11.084;2023-10-31T14:08:39;1.48;;;0.35;;
42096;SDS011;27754;45.414;11.084;2023-10-31T14:11:06;1.77;;;0.38;;
42096;SDS011;27754;45.414;11.084;2023-10-31T14:13:37;0.75;;;0.47;;
42096;SDS011;27754;45.414;11.084;2023-10-31T14:16:06;1.98;;;0.50;;
42096;SDS011;27754;45.414;11.084;2023-10-31T14:18:33;0.82;;;0.60;;
42096;SDS011;27754;45.414;11.084;2023-10-31T14:21:00;1.58;;;0.43;;
42096;SDS011;27754;45.414;11.084;2023-10-31T14:23:27;0.80;;;0.45;;
42096;SDS011;27754;45.414;11.084;2023-10-31T14:25:54;1.38;;;0.57;;
42096;SDS011;27754;45.414;11.084;2023-10-31T14:28:21;2.45;;;0.50;;
42096;SDS011;27754;45.414;11.084;2023-10-31T14:30:48;1.25;;;0.55;;
42096;SDS011;27754;45.414;11.084;2023-10-31T14:33:15;2.22;;;0.52;;
42096;SDS011;27754;45.414;11.084;2023-10-31T14:35:42;1.73;;;0.60;;
42096;SDS011;27754;45.414;11.084;2023-10-31T14:38:09;1.35;;;0.65;;
42096;SDS011;27754;45.414;11.084;2023-10-31T14:40:36;1.83;;;0.63;;
42096;SDS011;27754;45.414;11.084;2023-10-31T14:43:02;0.40;;;0.35;;